createdAt,value
2019-05-02T00:02:16.166Z,37.98
2019-05-02T00:04:43.487Z,37.75
2019-05-02T00:07:14.464Z,43.58
2019-05-02T00:09:47.784Z,46.30
2019-05-02T00:12:11.571Z,40.55
2019-05-02T00:14:38.915Z,36.90
2019-05-02T00:17:06.299Z,38.88
2019-05-02T00:19:33.643Z,38.58
2019-05-02T00:22:00.959Z,42.80
2019-05-02T00:24:28.275Z,37.55
2019-05-02T00:26:56.216Z,36.68
2019-05-02T00:29:25.047Z,40.33
2019-05-02T00:31:52.477Z,37.73
2019-05-02T00:34:19.877Z,35.60
2019-05-02T00:36:47.184Z,38.20
2019-05-02T00:39:15.238Z,35.65
2019-05-02T00:41:42.656Z,37.00
2019-05-02T00:44:10.927Z,37.75
2019-05-02T00:46:38.932Z,38.20
2019-05-02T00:49:06.277Z,34.48
2019-05-02T00:51:33.588Z,36.03
2019-05-02T00:54:00.898Z,35.65
2019-05-02T00:56:28.246Z,36.28
2019-05-02T00:58:55.545Z,36.58
2019-05-02T01:01:31.145Z,37.30
2019-05-02T01:04:00.143Z,39.40
2019-05-02T01:06:27.463Z,40.15
2019-05-02T01:08:54.765Z,39.92
2019-05-02T01:11:22.106Z,39.48
2019-05-02T01:13:50.364Z,37.35
2019-05-02T01:16:19.132Z,37.98
2019-05-02T01:18:47.357Z,36.68
2019-05-02T01:21:14.675Z,39.08
2019-05-02T01:23:42.085Z,40.38
2019-05-02T01:26:10.964Z,36.98
2019-05-02T01:28:58.052Z,38.73
2019-05-02T01:31:27.009Z,38.75
2019-05-02T01:33:55.978Z,39.88
2019-05-02T01:36:24.954Z,41.60
2019-05-02T01:38:52.289Z,38.73
2019-05-02T01:41:23.839Z,41.05
2019-05-02T01:43:48.581Z,39.58
2019-05-02T01:46:17.083Z,39.60
2019-05-02T01:48:45.649Z,38.98
2019-05-02T01:51:13.446Z,39.40
2019-05-02T01:53:40.764Z,38.83
2019-05-02T01:56:08.110Z,42.05
2019-05-02T01:58:35.424Z,42.65
2019-05-02T02:01:03.255Z,40.65
2019-05-02T02:03:30.584Z,40.65
2019-05-02T02:05:57.891Z,41.60
2019-05-02T02:08:27.424Z,41.48
2019-05-02T02:10:56.208Z,40.33
2019-05-02T02:13:23.176Z,42.73
2019-05-02T02:15:50.478Z,40.03
2019-05-02T02:18:22.353Z,39.08
2019-05-02T02:20:55.161Z,39.08
2019-05-02T02:23:26.975Z,38.28
2019-05-02T02:25:55.917Z,43.80
2019-05-02T02:28:23.239Z,40.00
2019-05-02T02:30:50.590Z,38.92
2019-05-02T02:33:17.896Z,37.85
2019-05-02T02:35:50.396Z,40.65
2019-05-02T02:38:14.192Z,39.88
2019-05-02T02:40:41.540Z,40.00
2019-05-02T02:43:30.246Z,40.25
2019-05-02T02:45:40.529Z,47.23
2019-05-02T02:48:07.845Z,41.02
2019-05-02T02:50:36.649Z,41.42
2019-05-02T02:53:04.362Z,46.00
2019-05-02T02:55:31.682Z,42.80
2019-05-02T02:58:04.764Z,40.35
2019-05-02T03:00:27.983Z,43.55
2019-05-02T03:02:55.300Z,37.70
2019-05-02T03:05:26.339Z,41.30
2019-05-02T03:07:51.628Z,41.15
2019-05-02T03:10:18.961Z,37.98
2019-05-02T03:12:47.917Z,38.05
2019-05-02T03:15:21.133Z,45.45
2019-05-02T03:17:48.539Z,39.67
2019-05-02T03:20:15.860Z,38.17
2019-05-02T03:22:43.615Z,42.33
2019-05-02T03:25:10.997Z,39.98
2019-05-02T03:27:40.378Z,38.88
2019-05-02T03:30:07.321Z,38.70
2019-05-02T03:32:36.155Z,39.60
2019-05-02T03:35:03.607Z,41.18
2019-05-02T03:37:31.543Z,39.98
2019-05-02T03:40:00.718Z,38.30
2019-05-02T03:42:27.857Z,38.23
2019-05-02T03:45:00.112Z,37.53
2019-05-02T03:47:24.122Z,35.75
2019-05-02T03:49:52.262Z,38.35
2019-05-02T03:52:19.791Z,36.58
2019-05-02T03:54:50.540Z,36.10
2019-05-02T03:57:16.083Z,34.63
2019-05-02T03:59:43.448Z,37.38
2019-05-02T04:02:14.167Z,38.67
2019-05-02T04:04:39.992Z,35.65
2019-05-02T04:07:07.328Z,36.35
2019-05-02T04:09:39.152Z,36.53
2019-05-02T04:12:04.145Z,37.83
2019-05-02T04:14:38.027Z,37.05
2019-05-02T04:17:00.433Z,37.25
2019-05-02T04:19:28.755Z,34.60
2019-05-02T04:22:01.524Z,36.65
2019-05-02T04:24:25.707Z,35.68
2019-05-02T04:26:56.232Z,37.63
2019-05-02T04:29:24.698Z,35.20
2019-05-02T04:31:51.350Z,35.80
2019-05-02T04:34:18.733Z,34.38
2019-05-02T04:36:47.135Z,33.88
2019-05-02T04:39:20.593Z,32.93
2019-05-02T04:41:43.997Z,39.30
2019-05-02T04:44:11.327Z,37.78
2019-05-02T04:46:38.857Z,35.48
2019-05-02T04:49:09.011Z,36.35
2019-05-02T04:51:37.975Z,36.05
2019-05-02T04:54:04.205Z,37.05
2019-05-02T04:56:31.557Z,38.80
2019-05-02T04:59:01.484Z,42.38
2019-05-02T05:01:33.031Z,38.90
2019-05-02T05:04:02.529Z,39.03
2019-05-02T05:06:27.678Z,38.60
2019-05-02T05:08:54.778Z,37.13
2019-05-02T05:11:25.016Z,40.43
2019-05-02T05:13:52.387Z,38.88
2019-05-02T05:16:20.082Z,36.80
2019-05-02T05:18:49.371Z,38.13
2019-05-02T05:21:17.833Z,35.68
2019-05-02T05:23:51.705Z,35.63
2019-05-02T05:26:18.931Z,34.80
2019-05-02T05:28:47.650Z,36.20
2019-05-02T05:31:16.483Z,33.70
2019-05-02T05:33:43.970Z,33.58
2019-05-02T05:36:11.309Z,34.25
2019-05-02T05:38:40.622Z,32.90
2019-05-02T05:41:08.883Z,32.67
2019-05-02T05:43:38.012Z,32.50
2019-05-02T05:46:10.601Z,32.30
2019-05-02T05:48:39.128Z,32.20
2019-05-02T05:51:03.386Z,36.00
2019-05-02T05:53:30.691Z,32.50
2019-05-02T05:56:01.368Z,33.95
2019-05-02T05:58:28.389Z,31.30
2019-05-02T06:00:58.268Z,33.67
2019-05-02T06:03:24.746Z,34.55
2019-05-02T06:05:52.128Z,30.15
2019-05-02T06:08:20.002Z,36.65
2019-05-02T06:10:47.377Z,34.63
2019-05-02T06:13:14.703Z,37.73
2019-05-02T06:15:42.050Z,30.37
2019-05-02T06:18:09.391Z,28.42
2019-05-02T06:20:36.739Z,35.15
2019-05-02T06:23:04.087Z,35.83
2019-05-02T06:25:34.355Z,31.77
2019-05-02T06:28:04.767Z,33.18
2019-05-02T06:30:31.027Z,31.35
2019-05-02T06:32:58.458Z,35.60
2019-05-02T06:35:25.779Z,31.85
2019-05-02T06:37:53.131Z,32.67
2019-05-02T06:40:20.484Z,31.17
2019-05-02T06:42:47.839Z,34.98
2019-05-02T06:45:15.918Z,31.73
2019-05-02T06:47:43.614Z,31.05
2019-05-02T06:50:10.995Z,42.30
2019-05-02T06:52:38.316Z,31.23
2019-05-02T06:55:05.990Z,34.18
2019-05-02T06:57:33.334Z,35.35
2019-05-02T07:00:00.641Z,31.02
2019-05-02T07:02:28.297Z,37.23
2019-05-02T07:04:57.001Z,30.45
2019-05-02T07:07:25.232Z,30.62
2019-05-02T07:09:53.582Z,35.55
2019-05-02T07:12:20.898Z,27.48
2019-05-02T07:14:48.211Z,37.90
2019-05-02T07:17:32.042Z,29.55
2019-05-02T07:20:03.927Z,36.65
2019-05-02T07:22:33.218Z,37.03
2019-05-02T07:24:57.613Z,30.05
2019-05-02T07:27:28.306Z,31.60
2019-05-02T07:29:57.778Z,32.20
2019-05-02T07:32:24.855Z,29.27
2019-05-02T07:34:51.882Z,31.57
2019-05-02T07:37:19.238Z,32.33
2019-05-02T07:39:46.570Z,34.92
2019-05-02T07:42:13.881Z,35.80
2019-05-02T07:44:41.221Z,34.45
2019-05-02T07:47:08.533Z,34.40
2019-05-02T07:49:35.847Z,37.73
2019-05-02T07:52:03.197Z,33.83
2019-05-02T07:54:30.675Z,36.58
2019-05-02T07:56:57.984Z,36.45
2019-05-02T07:59:25.331Z,36.85
2019-05-02T08:01:52.643Z,34.92
2019-05-02T08:04:19.955Z,34.13
2019-05-02T08:06:47.290Z,34.73
2019-05-02T08:09:14.598Z,31.77
2019-05-02T08:11:41.917Z,36.15
2019-05-02T08:14:09.258Z,30.27
2019-05-02T08:16:36.582Z,37.38
2019-05-02T08:19:05.532Z,32.35
2019-05-02T08:21:33.983Z,35.43
2019-05-02T08:24:02.279Z,29.05
2019-05-02T08:26:31.882Z,31.10
2019-05-02T08:29:00.874Z,29.50
2019-05-02T08:31:30.130Z,33.67
2019-05-02T08:33:57.207Z,30.55
2019-05-02T08:36:24.533Z,33.70
2019-05-02T08:38:53.583Z,32.80
2019-05-02T08:41:21.470Z,28.90
2019-05-02T08:43:48.835Z,32.55
2019-05-02T08:46:16.258Z,30.62
2019-05-02T08:48:43.793Z,34.85
2019-05-02T08:51:11.123Z,31.17
2019-05-02T08:53:38.454Z,34.00
2019-05-02T08:56:05.790Z,35.23
2019-05-02T08:58:33.111Z,30.48
2019-05-02T09:01:00.422Z,35.50
2019-05-02T09:03:27.773Z,30.20
2019-05-02T09:06:05.197Z,32.58
2019-05-02T09:08:24.090Z,29.63
2019-05-02T09:10:51.391Z,33.18
2019-05-02T09:13:26.369Z,32.28
2019-05-02T09:15:51.230Z,31.00
2019-05-02T09:18:16.664Z,38.63
2019-05-02T09:20:46.950Z,37.65
2019-05-02T09:23:12.963Z,26.42
2019-05-02T09:25:40.259Z,30.62
2019-05-02T09:28:07.548Z,40.17
2019-05-02T09:30:34.884Z,33.15
2019-05-02T09:33:05.413Z,33.33
2019-05-02T09:35:32.857Z,33.02
2019-05-02T09:38:01.768Z,29.75
2019-05-02T09:40:29.209Z,31.80
2019-05-02T09:43:01.696Z,30.15
2019-05-02T09:45:27.730Z,36.48
2019-05-02T09:48:04.520Z,32.75
2019-05-02T09:50:29.421Z,33.02
2019-05-02T09:52:53.998Z,33.80
2019-05-02T09:55:22.648Z,32.08
2019-05-02T09:57:51.762Z,32.83
2019-05-02T10:00:22.141Z,32.88
2019-05-02T10:02:49.475Z,38.78
2019-05-02T10:05:16.798Z,36.30
2019-05-02T10:07:44.094Z,33.70
2019-05-02T10:10:12.603Z,35.23
2019-05-02T10:12:39.987Z,34.53
2019-05-02T10:15:07.284Z,37.08
2019-05-02T10:17:37.571Z,34.50
2019-05-02T10:20:05.242Z,37.95
2019-05-02T10:22:39.228Z,34.73
2019-05-02T10:25:02.611Z,37.98
2019-05-02T10:27:29.974Z,35.90
2019-05-02T10:30:08.401Z,37.15
2019-05-02T10:32:26.560Z,35.60
2019-05-02T10:34:56.825Z,40.85
2019-05-02T10:37:22.898Z,43.15
2019-05-02T10:39:52.154Z,46.33
2019-05-02T10:42:19.154Z,41.58
2019-05-02T10:44:46.518Z,38.53
2019-05-02T10:47:13.822Z,42.08
2019-05-02T10:49:42.778Z,39.10
2019-05-02T10:52:12.085Z,40.03
2019-05-02T10:54:39.035Z,46.85
2019-05-02T10:57:06.338Z,36.15
2019-05-02T10:59:33.672Z,40.10
2019-05-02T11:02:02.614Z,43.98
2019-05-02T11:04:30.087Z,39.18
2019-05-02T11:06:57.395Z,38.78
2019-05-02T11:09:26.384Z,39.83
2019-05-02T11:11:54.694Z,37.53
2019-05-02T11:14:23.667Z,32.15
2019-05-02T11:17:01.820Z,32.17
2019-05-02T11:19:31.795Z,36.55
2019-05-02T11:21:59.308Z,34.80
2019-05-02T11:24:26.562Z,30.57
2019-05-02T11:26:53.955Z,33.80
2019-05-02T11:29:22.791Z,31.05
2019-05-02T11:31:52.021Z,37.65
2019-05-02T11:34:19.179Z,38.35
2019-05-02T11:36:46.475Z,35.30
2019-05-02T11:39:20.010Z,34.08
2019-05-02T11:41:42.726Z,34.92
2019-05-02T11:44:11.658Z,41.13
2019-05-02T11:46:42.915Z,41.90
2019-05-02T11:49:07.923Z,33.45
2019-05-02T11:51:35.225Z,39.18
2019-05-02T11:54:05.203Z,32.75
2019-05-02T11:56:32.963Z,36.63
2019-05-02T11:59:02.616Z,34.45
2019-05-02T12:01:37.194Z,36.30
2019-05-02T12:03:58.399Z,32.40
2019-05-02T12:06:25.690Z,29.80
2019-05-02T12:08:52.987Z,31.90
2019-05-02T12:11:20.365Z,27.40
2019-05-02T12:13:54.814Z,27.57
2019-05-02T12:16:18.321Z,23.23
2019-05-02T12:18:45.653Z,29.52
2019-05-02T12:21:13.037Z,27.52
2019-05-02T12:23:41.817Z,33.98
2019-05-02T12:26:09.175Z,30.00
2019-05-02T12:28:36.464Z,27.50
2019-05-02T12:31:08.094Z,32.70
2019-05-02T12:33:34.472Z,30.50
2019-05-02T12:36:02.639Z,50.23
2019-05-02T12:38:29.982Z,53.13
2019-05-02T12:40:58.007Z,38.03
2019-05-02T12:43:25.315Z,43.90
2019-05-02T12:45:52.976Z,34.70
2019-05-02T12:48:22.031Z,35.07
2019-05-02T12:50:49.438Z,36.83
2019-05-02T12:53:16.741Z,40.80
2019-05-02T12:55:44.067Z,35.13
2019-05-02T12:58:12.536Z,50.07
2019-05-02T13:00:39.994Z,32.17
2019-05-02T13:03:08.942Z,42.47
2019-05-02T13:05:36.212Z,29.40
2019-05-02T13:08:03.555Z,27.70
2019-05-02T13:10:48.671Z,34.53
2019-05-02T13:13:16.265Z,26.27
2019-05-02T13:15:43.589Z,34.80
2019-05-02T13:18:12.451Z,42.13
2019-05-02T13:20:41.744Z,39.10
2019-05-02T13:23:27.381Z,27.37
2019-05-02T13:25:54.859Z,26.87
2019-05-02T13:28:25.555Z,29.90
2019-05-02T13:30:58.770Z,25.50
2019-05-02T13:33:32.442Z,38.20
2019-05-02T13:35:58.225Z,28.33
2019-05-02T13:38:25.541Z,26.00
2019-05-02T13:40:52.833Z,25.37
2019-05-02T13:43:21.907Z,25.67
2019-05-02T13:46:02.727Z,37.80
2019-05-02T13:48:32.159Z,24.80
2019-05-02T13:50:59.081Z,25.70
2019-05-02T13:53:26.452Z,24.33
2019-05-02T13:56:12.988Z,24.73
2019-05-02T13:58:42.033Z,28.13
2019-05-02T14:01:09.358Z,24.60
2019-05-02T14:03:36.669Z,26.23
2019-05-02T14:06:04.035Z,23.93
2019-05-02T14:08:39.090Z,22.00
2019-05-02T14:11:08.022Z,25.77
2019-05-02T14:13:35.550Z,22.17
2019-05-02T14:16:02.825Z,24.30
2019-05-02T14:18:31.631Z,19.17
2019-05-02T14:20:59.113Z,21.23
2019-05-02T14:23:26.983Z,19.97
2019-05-02T14:25:54.302Z,27.17
2019-05-02T14:28:22.431Z,27.93
2019-05-02T14:30:49.833Z,21.17
2019-05-02T14:33:18.804Z,16.80
2019-05-02T14:35:46.104Z,19.00
2019-05-02T14:38:13.977Z,19.90
2019-05-02T14:40:55.411Z,20.50
2019-05-02T14:43:46.220Z,21.10
2019-05-02T14:46:09.373Z,18.73
2019-05-02T14:48:41.584Z,21.63
2019-05-02T14:51:07.257Z,16.53
2019-05-02T14:53:34.563Z,25.20
2019-05-02T14:56:06.169Z,20.17
2019-05-02T14:58:32.518Z,20.43
2019-05-02T15:00:59.824Z,16.87
2019-05-02T15:03:28.538Z,19.03
2019-05-02T15:05:59.033Z,17.63
2019-05-02T15:08:24.791Z,18.87
2019-05-02T15:10:56.062Z,18.57
2019-05-02T15:13:22.862Z,19.93
2019-05-02T15:15:49.995Z,24.27
2019-05-02T15:18:17.574Z,22.40
2019-05-02T15:20:45.006Z,18.37
2019-05-02T15:23:19.370Z,20.33
2019-05-02T15:25:42.365Z,21.97
2019-05-02T15:28:13.092Z,17.97
2019-05-02T15:30:44.803Z,21.37
2019-05-02T15:33:17.054Z,18.03
2019-05-02T15:35:57.295Z,23.67
2019-05-02T15:38:27.356Z,25.60
2019-05-02T15:40:53.785Z,32.23
2019-05-02T15:43:22.200Z,23.50
2019-05-02T15:45:49.521Z,17.80
2019-05-02T15:48:22.499Z,22.17
2019-05-02T15:50:50.221Z,17.60
2019-05-02T15:53:16.426Z,16.30
2019-05-02T15:55:44.001Z,18.20
2019-05-02T15:58:23.053Z,17.40
2019-05-02T16:00:47.777Z,19.07
2019-05-02T16:03:15.079Z,16.33
2019-05-02T16:05:45.111Z,17.33
2019-05-02T16:08:12.609Z,17.80
2019-05-02T16:10:40.087Z,19.13
2019-05-02T16:13:08.794Z,25.67
2019-05-02T16:15:36.980Z,20.27
2019-05-02T16:18:05.367Z,18.33
2019-05-02T16:20:46.923Z,18.90
2019-05-02T16:23:09.167Z,18.97
2019-05-02T16:25:36.451Z,19.70
2019-05-02T16:28:06.076Z,17.37
2019-05-02T16:30:36.992Z,17.87
2019-05-02T16:33:02.685Z,19.17
2019-05-02T16:35:31.835Z,25.55
2019-05-02T16:37:59.123Z,19.87
2019-05-02T16:40:29.790Z,21.25
2019-05-02T16:42:55.396Z,24.37
2019-05-02T16:45:22.694Z,16.40
2019-05-02T16:47:58.372Z,16.65
2019-05-02T16:50:19.033Z,20.12
2019-05-02T16:52:47.437Z,16.50
2019-05-02T16:55:21.162Z,18.30
2019-05-02T16:57:43.778Z,16.57
2019-05-02T17:00:13.111Z,19.70
2019-05-02T17:02:44.898Z,17.40
2019-05-02T17:05:11.665Z,18.27
2019-05-02T17:07:42.949Z,19.02
2019-05-02T17:10:14.786Z,17.62
2019-05-02T17:12:42.669Z,20.95
2019-05-02T17:15:26.289Z,19.55
2019-05-02T17:17:54.154Z,22.85
2019-05-02T17:20:22.173Z,21.62
2019-05-02T17:22:50.361Z,17.30
2019-05-02T17:25:18.250Z,20.15
2019-05-02T17:27:45.554Z,21.77
2019-05-02T17:30:12.900Z,17.82
2019-05-02T17:32:41.519Z,18.85
2019-05-02T17:35:09.915Z,24.92
2019-05-02T17:37:40.644Z,23.30
2019-05-02T17:40:06.784Z,21.35
2019-05-02T17:42:34.071Z,20.23
2019-05-02T17:45:03.818Z,18.12
2019-05-02T17:47:31.009Z,18.45
2019-05-02T17:50:02.178Z,22.20
2019-05-02T17:52:37.000Z,21.48
2019-05-02T17:55:07.259Z,19.37
2019-05-02T17:57:34.929Z,20.88
2019-05-02T18:00:02.828Z,19.55
2019-05-02T18:02:31.684Z,22.73
2019-05-02T18:04:59.042Z,20.88
2019-05-02T18:07:31.878Z,18.10
2019-05-02T18:09:55.313Z,21.97
2019-05-02T18:12:22.610Z,20.70
2019-05-02T18:14:53.137Z,23.45
2019-05-02T18:17:18.885Z,22.62
2019-05-02T18:19:46.185Z,21.57
2019-05-02T18:22:23.420Z,28.62
2019-05-02T18:24:46.265Z,24.50
2019-05-02T18:27:12.929Z,20.08
2019-05-02T18:29:42.647Z,22.52
2019-05-02T18:32:09.273Z,21.48
2019-05-02T18:34:36.568Z,22.67
2019-05-02T18:37:06.219Z,22.58
2019-05-02T18:39:34.772Z,23.67
2019-05-02T18:42:01.787Z,26.93
2019-05-02T18:44:29.081Z,21.87
2019-05-02T18:46:57.797Z,25.48
2019-05-02T18:49:25.217Z,23.75
2019-05-02T18:51:53.749Z,23.80
2019-05-02T18:54:21.750Z,20.20
2019-05-02T18:56:52.592Z,28.10
2019-05-02T18:59:19.906Z,25.62
2019-05-02T19:01:47.425Z,23.00
2019-05-02T19:04:15.966Z,23.00
2019-05-02T19:06:43.249Z,21.57
2019-05-02T19:09:12.563Z,30.17
2019-05-02T19:11:39.571Z,25.75
2019-05-02T19:14:06.871Z,27.37
2019-05-02T19:16:34.283Z,21.87
2019-05-02T19:19:01.868Z,28.42
2019-05-02T19:21:32.045Z,20.57
2019-05-02T19:23:58.159Z,17.95
2019-05-02T19:26:25.466Z,22.82
2019-05-02T19:28:54.425Z,25.72
2019-05-02T19:31:22.439Z,26.42
2019-05-02T19:33:49.803Z,23.27
2019-05-02T19:36:24.429Z,29.07
2019-05-02T19:38:46.063Z,23.77
2019-05-02T19:41:13.386Z,28.92
2019-05-02T19:43:49.386Z,22.32
2019-05-02T19:46:09.638Z,24.82
2019-05-02T19:48:40.436Z,25.15
2019-05-02T19:51:12.691Z,27.75
2019-05-02T19:53:36.358Z,24.10
2019-05-02T19:56:03.660Z,25.10
2019-05-02T19:58:32.041Z,22.90
2019-05-02T20:00:59.335Z,20.65
2019-05-02T20:03:26.620Z,27.82
2019-05-02T20:05:56.616Z,32.83
2019-05-02T20:08:24.533Z,29.63
2019-05-02T20:10:56.675Z,21.60
2019-05-02T20:13:28.321Z,28.95
2019-05-02T20:15:57.196Z,22.10
2019-05-02T20:18:23.508Z,26.77
2019-05-02T20:21:04.292Z,31.70
2019-05-02T20:23:35.561Z,28.47
2019-05-02T20:26:00.600Z,27.98
2019-05-02T20:28:27.918Z,26.95
2019-05-02T20:30:55.231Z,29.95
2019-05-02T20:33:22.530Z,27.40
2019-05-02T20:35:49.855Z,27.50
2019-05-02T20:38:17.157Z,27.15
2019-05-02T20:40:44.450Z,32.67
2019-05-02T20:43:12.144Z,23.75
2019-05-02T20:45:39.601Z,26.52
2019-05-02T20:48:06.916Z,28.20
2019-05-02T20:50:34.220Z,29.42
2019-05-02T20:53:01.984Z,27.13
2019-05-02T20:55:29.332Z,26.52
2019-05-02T20:57:56.618Z,26.95
2019-05-02T21:00:27.727Z,29.52
2019-05-02T21:02:55.088Z,28.25
2019-05-02T21:05:25.122Z,25.12
2019-05-02T21:08:02.829Z,23.20
2019-05-02T21:10:34.431Z,23.38
2019-05-02T21:13:02.139Z,21.82
2019-05-02T21:15:29.438Z,24.90
2019-05-02T21:17:56.726Z,22.17
2019-05-02T21:20:24.051Z,28.40
2019-05-02T21:22:52.936Z,27.58
2019-05-02T21:25:20.381Z,26.45
2019-05-02T21:27:47.678Z,27.10
2019-05-02T21:30:15.010Z,25.72
2019-05-02T21:32:42.789Z,25.52
2019-05-02T21:35:11.900Z,30.48
2019-05-02T21:37:39.313Z,28.95
2019-05-02T21:40:06.618Z,24.25
2019-05-02T21:42:33.902Z,28.77
2019-05-02T21:45:02.442Z,27.22
2019-05-02T21:47:31.755Z,28.17
2019-05-02T21:50:12.376Z,30.48
2019-05-02T21:52:57.514Z,27.13
2019-05-02T21:55:29.125Z,28.25
2019-05-02T21:57:56.417Z,27.48
2019-05-02T22:00:27.977Z,20.60
2019-05-02T22:02:55.285Z,25.75
2019-05-02T22:05:22.578Z,23.95
2019-05-02T22:07:49.898Z,22.15
2019-05-02T22:10:17.197Z,25.02
2019-05-02T22:12:44.498Z,24.37
2019-05-02T22:15:12.772Z,30.75
2019-05-02T22:17:41.607Z,28.77
2019-05-02T22:20:08.907Z,29.35
2019-05-02T22:22:36.222Z,26.77
2019-05-02T22:25:03.717Z,28.70
2019-05-02T22:27:32.468Z,29.82
2019-05-02T22:30:01.948Z,29.87
2019-05-02T22:32:28.803Z,27.30
2019-05-02T22:34:56.132Z,28.80
2019-05-02T22:37:24.293Z,28.80
2019-05-02T22:39:53.266Z,27.32
2019-05-02T22:42:21.883Z,26.23
2019-05-02T22:44:49.293Z,26.23
2019-05-02T22:47:16.597Z,26.75
2019-05-02T22:49:43.893Z,26.07
2019-05-02T22:52:12.128Z,28.27
2019-05-02T22:54:41.639Z,27.52
2019-05-02T22:57:08.945Z,27.93
2019-05-02T22:59:36.236Z,22.93
2019-05-02T23:02:03.553Z,24.57
2019-05-02T23:04:32.546Z,23.50
2019-05-02T23:07:02.145Z,21.17
2019-05-02T23:09:28.918Z,24.77
2019-05-02T23:11:56.209Z,23.20
2019-05-02T23:14:23.533Z,23.30
2019-05-02T23:16:52.599Z,19.30
2019-05-02T23:19:22.648Z,20.32
2019-05-02T23:21:48.736Z,22.27
2019-05-02T23:24:17.662Z,18.48
2019-05-02T23:26:46.603Z,21.60
2019-05-02T23:29:15.579Z,18.60
2019-05-02T23:31:42.892Z,22.42
2019-05-02T23:34:10.190Z,20.70
2019-05-02T23:36:37.510Z,19.62
2019-05-02T23:39:05.674Z,18.07
2019-05-02T23:41:33.001Z,19.02
2019-05-02T23:44:00.316Z,17.15
2019-05-02T23:46:27.619Z,19.30
2019-05-02T23:48:54.944Z,15.45
2019-05-02T23:51:22.639Z,20.25
2019-05-02T23:53:49.975Z,18.57
2019-05-02T23:56:17.270Z,20.02
2019-05-02T23:58:44.570Z,18.48
